Time;durP1;ratioP1;P1;durP2;ratioP2;P2;SDS_P1;SDS_P2;PMS_P1;PMS_P2;Temp;Humidity;BMP_temperature;BMP_pressure;BME280_temperature;BME280_humidity;BME280_pressure;Samples;Min_cycle;Max_cycle;Signal;HPM_P1;HPM_P2
2022/10/13 00:00:31;;;;;;;23.98;10.77;;;11.30;99.90;;;;;;5049720;28;20032;-87
2022/10/13 00:03:01;;;;;;;20.10;10.10;;;11.30;99.90;;;;;;5048607;28;20096;-86
2022/10/13 00:05:27;;;;;;;19.85;9.95;;;11.30;99.90;;;;;;5048052;28;20029;-87
2022/10/13 00:07:52;;;;;;;18.23;10.75;;;11.40;99.90;;;;;;5050122;28;20538;-86
2022/10/13 00:10:18;;;;;;;19.63;9.60;;;11.40;99.90;;;;;;5050458;28;20032;-87
2022/10/13 00:12:43;;;;;;;24.45;10.85;;;11.40;99.90;;;;;;5048710;28;20017;-85
2022/10/13 00:15:11;;;;;;;26.83;11.77;;;11.40;99.90;;;;;;5048470;28;20037;-86
2022/10/13 00:17:36;;;;;;;17.92;10.25;;;11.50;99.90;;;;;;5049448;28;20075;-86
2022/10/13 00:20:04;;;;;;;17.05;9.52;;;11.50;99.90;;;;;;5033487;28;20397;-85
2022/10/13 00:22:30;;;;;;;20.83;11.23;;;11.60;99.90;;;;;;5049804;28;20036;-86
2022/10/13 00:24:56;;;;;;;25.92;10.38;;;11.60;99.90;;;;;;5049280;28;20392;-86
2022/10/13 00:27:21;;;;;;;24.60;11.73;;;11.60;99.90;;;;;;5051684;28;20477;-85
2022/10/13 00:29:47;;;;;;;32.72;10.75;;;11.70;99.90;;;;;;5050140;28;20017;-86
2022/10/13 00:32:12;;;;;;;19.63;11.90;;;11.60;99.90;;;;;;5049631;28;20063;-86
2022/10/13 00:34:38;;;;;;;19.33;10.73;;;11.60;99.90;;;;;;5045801;28;20060;-86
2022/10/13 00:37:04;;;;;;;20.40;11.07;;;11.60;99.90;;;;;;5049421;28;20078;-86
2022/10/13 00:39:29;;;;;;;19.95;11.55;;;11.60;99.90;;;;;;5049818;28;20104;-86
2022/10/13 00:41:57;;;;;;;21.58;11.75;;;11.60;99.90;;;;;;5048939;28;20037;-86
2022/10/13 00:45:00;;;;;;;20.90;11.48;;;11.60;99.90;;;;;;5046964;28;20268;-86
2022/10/13 00:47:38;;;;;;;20.42;11.00;;;11.60;99.90;;;;;;5049683;28;20028;-86
2022/10/13 00:50:06;;;;;;;18.80;10.52;;;11.60;99.90;;;;;;5053446;28;20439;-86
2022/10/13 00:52:33;;;;;;;20.05;10.93;;;11.60;99.90;;;;;;5052601;28;20111;-85
2022/10/13 00:55:01;;;;;;;24.20;11.52;;;11.60;99.90;;;;;;5051003;28;20036;-86
2022/10/13 00:57:27;;;;;;;23.42;11.68;;;11.60;99.90;;;;;;5054253;28;20031;-86
2022/10/13 00:59:53;;;;;;;24.05;12.00;;;11.60;99.90;;;;;;5053374;28;20033;-86
2022/10/13 01:02:18;;;;;;;23.98;12.02;;;11.60;99.90;;;;;;5049621;28;20033;-86
2022/10/13 01:04:46;;;;;;;25.55;12.05;;;11.60;99.90;;;;;;5049454;28;20605;-86
2022/10/13 01:07:14;;;;;;;23.85;12.15;;;11.70;99.90;;;;;;5052125;28;20025;-86
2022/10/13 01:09:41;;;;;;;24.88;12.20;;;11.60;99.90;;;;;;5053299;28;20028;-85
2022/10/13 01:12:19;;;;;;;19.90;11.50;;;11.60;99.90;;;;;;5043306;28;20029;-85
2022/10/13 01:15:00;;;;;;;22.80;11.10;;;11.60;99.90;;;;;;5050819;28;20045;-85
2022/10/13 01:17:50;;;;;;;24.65;11.85;;;11.60;99.90;;;;;;5051941;28;20033;-86
2022/10/13 01:20:51;;;;;;;27.65;12.35;;;11.50;99.90;;;;;;5050458;28;20033;-86
2022/10/13 01:23:34;;;;;;;21.95;12.40;;;11.50;99.90;;;;;;5046783;28;20039;-86
2022/10/13 01:26:37;;;;;;;23.00;11.15;;;11.50;99.90;;;;;;5052080;28;20033;-86
2022/10/13 01:29:27;;;;;;;22.42;12.18;;;11.50;99.90;;;;;;5053300;28;20055;-86
2022/10/13 01:32:15;;;;;;;18.25;11.23;;;11.50;99.90;;;;;;5050662;28;20041;-86
2022/10/13 01:34:59;;;;;;;21.63;11.32;;;11.60;99.90;;;;;;5041306;28;20037;-86
2022/10/13 01:37:33;;;;;;;20.73;11.65;;;11.60;99.90;;;;;;5051846;28;20366;-86
2022/10/13 01:40:05;;;;;;;21.25;12.57;;;11.60;99.90;;;;;;5053378;28;20052;-86
2022/10/13 01:43:02;;;;;;;22.17;11.70;;;11.50;99.90;;;;;;5051906;28;20044;-86
2022/10/13 01:45:54;;;;;;;27.88;12.23;;;11.60;99.90;;;;;;5044853;28;20105;-86
2022/10/13 01:48:20;;;;;;;24.00;12.57;;;11.60;99.90;;;;;;5052775;28;20024;-86
2022/10/13 01:50:47;;;;;;;22.75;12.13;;;11.60;99.90;;;;;;5045211;28;20079;-86
2022/10/13 01:53:16;;;;;;;21.02;11.20;;;11.60;99.90;;;;;;5051063;28;20040;-85
2022/10/13 01:55:53;;;;;;;23.75;12.50;;;11.60;99.90;;;;;;5050173;28;20021;-85
2022/10/13 01:58:20;;;;;;;25.77;11.95;;;11.60;99.90;;;;;;5051482;28;20029;-86
2022/10/13 02:01:18;;;;;;;18.88;12.00;;;11.60;99.90;;;;;;5051104;28;20091;-86
2022/10/13 02:04:20;;;;;;;20.45;12.10;;;11.70;99.90;;;;;;5047055;28;20495;-85
2022/10/13 02:06:52;;;;;;;19.53;11.67;;;11.60;99.90;;;;;;5048831;28;20041;-85
2022/10/13 02:09:35;;;;;;;21.95;11.68;;;11.70;99.90;;;;;;5052755;28;20021;-85
2022/10/13 02:12:12;;;;;;;26.17;12.90;;;11.70;99.90;;;;;;5051216;28;20059;-85
2022/10/13 02:14:41;;;;;;;20.08;11.50;;;11.70;99.90;;;;;;5050279;28;20071;-85
2022/10/13 02:17:08;;;;;;;22.65;10.90;;;11.70;99.90;;;;;;5051442;28;20421;-85
2022/10/13 02:19:35;;;;;;;21.13;11.32;;;11.70;99.90;;;;;;5051813;28;20560;-85
2022/10/13 02:22:02;;;;;;;20.08;11.85;;;11.70;99.90;;;;;;5051639;28;20085;-85
2022/10/13 02:24:28;;;;;;;18.95;11.63;;;11.70;99.90;;;;;;5047781;28;20029;-85
2022/10/13 02:26:53;;;;;;;22.85;11.27;;;11.70;99.90;;;;;;5048546;28;20056;-85
2022/10/13 02:29:19;;;;;;;25.73;12.55;;;11.70;99.90;;;;;;5050369;28;20033;-86
2022/10/13 02:31:45;;;;;;;20.58;10.93;;;11.80;99.90;;;;;;5050906;28;20489;-85
2022/10/13 02:34:12;;;;;;;22.45;12.25;;;11.70;99.90;;;;;;5050779;28;20043;-85
2022/10/13 02:36:40;;;;;;;25.23;12.02;;;11.80;99.90;;;;;;5046328;28;20037;-86
2022/10/13 02:39:07;;;;;;;23.33;11.02;;;11.80;99.90;;;;;;5051672;28;20508;-86
2022/10/13 02:41:32;;;;;;;23.90;11.10;;;11.80;99.90;;;;;;5051630;28;20156;-86
2022/10/13 02:43:58;;;;;;;21.55;11.10;;;11.80;99.90;;;;;;5049522;28;20060;-86
2022/10/13 02:46:24;;;;;;;25.23;12.35;;;11.80;99.90;;;;;;5050882;28;20103;-86
2022/10/13 02:48:50;;;;;;;22.17;11.10;;;11.80;99.90;;;;;;5049496;28;20692;-85
2022/10/13 02:51:16;;;;;;;24.23;12.10;;;11.80;99.90;;;;;;5041998;28;20061;-85
2022/10/13 02:53:42;;;;;;;23.73;12.65;;;11.80;99.90;;;;;;5045164;28;20033;-86
2022/10/13 02:56:07;;;;;;;23.00;11.27;;;11.80;99.90;;;;;;5051238;28;20083;-86
2022/10/13 02:58:33;;;;;;;21.13;11.80;;;11.70;99.90;;;;;;5052056;28;20029;-86
2022/10/13 03:01:10;;;;;;;27.73;12.00;;;11.80;99.90;;;;;;5049476;28;20052;-86
2022/10/13 03:03:37;;;;;;;22.00;11.55;;;11.80;99.90;;;;;;5046995;28;21902;-86
2022/10/13 03:06:03;;;;;;;20.38;12.02;;;11.80;99.90;;;;;;5047237;28;20104;-86
2022/10/13 03:08:31;;;;;;;21.80;11.18;;;11.80;99.90;;;;;;5040440;28;20056;-85
2022/10/13 03:10:56;;;;;;;20.75;11.55;;;11.80;99.90;;;;;;5044737;28;20104;-86
2022/10/13 03:13:22;;;;;;;25.23;12.30;;;11.80;99.90;;;;;;5042311;28;20121;-86
2022/10/13 03:15:48;;;;;;;22.10;11.82;;;11.80;99.90;;;;;;5046089;28;20040;-85
2022/10/13 03:18:13;;;;;;;23.42;11.27;;;11.80;99.90;;;;;;5046281;28;20021;-85
2022/10/13 03:20:39;;;;;;;25.35;11.60;;;11.80;99.90;;;;;;5048747;28;20040;-86
2022/10/13 03:23:05;;;;;;;25.45;12.80;;;11.80;99.90;;;;;;5048351;28;20035;-86
2022/10/13 03:25:32;;;;;;;25.65;12.38;;;11.90;99.90;;;;;;5048090;28;20036;-86
2022/10/13 03:27:57;;;;;;;25.75;12.07;;;11.90;99.90;;;;;;5048011;28;20059;-86
2022/10/13 03:30:23;;;;;;;22.83;12.32;;;11.90;99.90;;;;;;5046656;28;20052;-86
2022/10/13 03:32:49;;;;;;;29.38;11.82;;;11.90;99.90;;;;;;5050221;28;20029;-86
2022/10/13 03:35:14;;;;;;;20.17;11.40;;;11.90;99.90;;;;;;5049247;28;20097;-86
2022/10/13 03:37:40;;;;;;;28.10;12.18;;;11.90;99.90;;;;;;5044559;28;20070;-86
2022/10/13 03:40:06;;;;;;;26.65;12.40;;;11.90;99.90;;;;;;5048339;28;20079;-86
2022/10/13 03:42:35;;;;;;;22.52;12.32;;;11.80;99.90;;;;;;5049476;28;20025;-86
2022/10/13 03:45:01;;;;;;;23.17;11.27;;;11.80;99.90;;;;;;5045616;28;20036;-86
2022/10/13 03:47:27;;;;;;;24.80;12.32;;;11.90;99.90;;;;;;5045692;28;20033;-86
2022/10/13 03:49:54;;;;;;;22.42;10.95;;;11.90;99.90;;;;;;5048718;28;20036;-86
2022/10/13 03:52:19;;;;;;;25.30;12.25;;;11.90;99.90;;;;;;5047635;28;20047;-86
2022/10/13 03:54:45;;;;;;;22.23;11.68;;;11.90;99.90;;;;;;5047477;28;20025;-87
2022/10/13 03:57:11;;;;;;;23.90;11.50;;;11.90;99.90;;;;;;5047547;28;20037;-85
2022/10/13 03:59:39;;;;;;;20.88;12.43;;;11.90;99.90;;;;;;5047513;28;20025;-86
2022/10/13 04:02:04;;;;;;;22.98;11.50;;;11.90;99.90;;;;;;5048228;28;20093;-86
2022/10/13 04:04:30;;;;;;;21.48;11.60;;;11.90;99.90;;;;;;5047117;28;20132;-86
2022/10/13 04:06:55;;;;;;;25.48;12.50;;;11.80;99.90;;;;;;5048660;28;20025;-86
2022/10/13 04:09:21;;;;;;;19.30;11.45;;;11.90;99.90;;;;;;5047315;28;20025;-86
2022/10/13 04:11:52;;;;;;;19.52;11.38;;;11.90;99.90;;;;;;5049359;28;20067;-86
2022/10/13 04:14:18;;;;;;;20.70;11.63;;;11.90;99.90;;;;;;5045214;28;20044;-86
2022/10/13 04:16:44;;;;;;;22.58;11.70;;;11.90;99.90;;;;;;5045885;28;20028;-85
2022/10/13 04:19:12;;;;;;;20.13;12.18;;;11.90;99.90;;;;;;5033643;28;20091;-86
2022/10/13 04:21:39;;;;;;;24.20;12.38;;;11.90;99.90;;;;;;5044189;28;20112;-86
2022/10/13 04:24:05;;;;;;;23.45;12.23;;;11.90;99.90;;;;;;5052797;28;20036;-86
2022/10/13 04:26:34;;;;;;;22.75;11.93;;;11.90;99.90;;;;;;5050336;28;20021;-86
2022/10/13 04:29:03;;;;;;;23.40;11.43;;;11.90;99.90;;;;;;5050316;28;20033;-86
2022/10/13 04:31:29;;;;;;;25.75;11.68;;;11.90;99.90;;;;;;5044428;28;20041;-87
2022/10/13 04:33:55;;;;;;;22.85;10.80;;;11.90;99.90;;;;;;5048767;28;20387;-86
2022/10/13 04:36:21;;;;;;;22.00;11.93;;;11.90;99.90;;;;;;5046645;28;20044;-87
2022/10/13 04:38:46;;;;;;;20.85;11.75;;;11.90;99.90;;;;;;5043887;28;20045;-86
2022/10/13 04:41:14;;;;;;;19.00;11.88;;;11.90;99.90;;;;;;5039100;28;20405;-86
2022/10/13 04:43:40;;;;;;;19.42;11.48;;;11.90;99.90;;;;;;5045145;28;20016;-86
2022/10/13 04:46:18;;;;;;;20.85;10.80;;;11.90;99.90;;;;;;5048990;28;20389;-85
2022/10/13 04:48:44;;;;;;;21.42;12.18;;;11.90;99.90;;;;;;5048337;28;20087;-86
2022/10/13 04:51:16;;;;;;;26.95;11.50;;;11.90;99.90;;;;;;5050167;28;20063;-85
2022/10/13 04:53:42;;;;;;;24.20;12.23;;;11.90;99.90;;;;;;5042252;28;20409;-86
2022/10/13 04:56:11;;;;;;;20.67;11.70;;;11.90;99.90;;;;;;5045404;28;20036;-86
2022/10/13 04:58:37;;;;;;;22.73;11.55;;;11.90;99.90;;;;;;5052798;28;20029;-86
2022/10/13 05:01:05;;;;;;;21.75;11.40;;;11.90;99.90;;;;;;5049419;28;20075;-85
2022/10/13 05:03:31;;;;;;;22.55;11.20;;;11.90;99.90;;;;;;5045813;28;20104;-86
2022/10/13 05:05:57;;;;;;;24.42;12.02;;;11.90;99.90;;;;;;5054782;28;20029;-86
2022/10/13 05:08:23;;;;;;;22.98;12.80;;;11.90;99.90;;;;;;5041926;28;20028;-86
2022/10/13 05:11:00;;;;;;;24.73;12.52;;;11.90;99.90;;;;;;5048352;28;20445;-86
2022/10/13 05:13:27;;;;;;;22.75;11.48;;;11.90;99.90;;;;;;5049079;28;20076;-86
2022/10/13 05:15:52;;;;;;;22.60;11.98;;;11.80;99.90;;;;;;5050659;28;20033;-85
2022/10/13 05:18:18;;;;;;;22.08;11.90;;;11.90;99.90;;;;;;5045420;28;20029;-86
2022/10/13 05:20:43;;;;;;;18.88;11.38;;;11.90;99.90;;;;;;5050270;28;20029;-85
2022/10/13 05:23:09;;;;;;;24.33;12.38;;;11.90;99.90;;;;;;5047167;28;20425;-86
2022/10/13 05:25:36;;;;;;;21.25;12.55;;;11.90;99.90;;;;;;5048658;28;20025;-86
2022/10/13 05:28:04;;;;;;;24.80;11.23;;;12.00;99.90;;;;;;5045134;28;20126;-86
2022/10/13 05:30:30;;;;;;;20.85;12.27;;;12.00;99.90;;;;;;5041696;28;20049;-86
2022/10/13 05:32:56;;;;;;;28.30;12.05;;;12.00;99.90;;;;;;5034274;28;20035;-85
2022/10/13 05:35:21;;;;;;;23.27;11.40;;;12.00;99.90;;;;;;5033184;28;20029;-86
2022/10/13 05:37:47;;;;;;;24.25;12.52;;;12.10;99.90;;;;;;5045572;28;20024;-86
2022/10/13 05:40:12;;;;;;;21.88;12.27;;;12.10;99.90;;;;;;5052470;28;20025;-86
2022/10/13 05:42:38;;;;;;;22.23;12.02;;;12.10;99.90;;;;;;5033668;28;20028;-87
2022/10/13 05:45:06;;;;;;;24.83;12.38;;;12.10;99.90;;;;;;5047170;28;20032;-86
2022/10/13 05:47:32;;;;;;;22.00;12.02;;;12.20;99.90;;;;;;5045691;28;20021;-87
2022/10/13 05:49:57;;;;;;;24.88;11.45;;;12.20;99.90;;;;;;5046533;28;20026;-87
2022/10/13 05:52:24;;;;;;;27.52;12.30;;;12.20;99.90;;;;;;5047660;28;21796;-87
2022/10/13 05:54:54;;;;;;;25.25;12.15;;;12.20;99.90;;;;;;5050523;28;20049;-86
2022/10/13 05:57:23;;;;;;;31.65;13.45;;;12.20;99.90;;;;;;5050998;28;20029;-87
2022/10/13 05:59:56;;;;;;;43.15;13.40;;;12.30;99.90;;;;;;5052615;28;20438;-87
2022/10/13 06:02:23;;;;;;;;;;;12.40;99.90;;;;;;5048320;28;20030;-87
2022/10/13 06:04:52;;;;;;;21.90;10.68;;;12.40;99.90;;;;;;5048476;28;19923;-87
2022/10/13 06:07:18;;;;;;;24.13;11.80;;;12.50;99.90;;;;;;5048228;28;20128;-87
2022/10/13 06:09:44;;;;;;;22.55;11.02;;;12.50;99.90;;;;;;5048594;28;20025;-87
2022/10/13 06:12:10;;;;;;;21.13;11.27;;;12.50;99.90;;;;;;5052659;28;20115;-87
2022/10/13 06:14:36;;;;;;;25.05;11.00;;;12.50;99.90;;;;;;5050370;28;20041;-86
2022/10/13 06:17:01;;;;;;;20.25;10.60;;;12.50;99.90;;;;;;5047473;28;20468;-88
2022/10/13 06:19:27;;;;;;;21.55;10.38;;;12.60;99.90;;;;;;5042754;28;20033;-89
2022/10/13 06:21:52;;;;;;;22.58;11.70;;;12.60;99.90;;;;;;5039907;28;20121;-89
2022/10/13 06:24:18;;;;;;;22.00;11.10;;;12.70;99.90;;;;;;5049137;28;20432;-89
2022/10/13 06:26:44;;;;;;;19.92;10.68;;;12.70;99.90;;;;;;5050803;28;20025;-88
2022/10/13 06:29:09;;;;;;;21.08;11.77;;;12.70;99.90;;;;;;5046593;28;20120;-90
2022/10/13 06:31:35;;;;;;;20.73;11.68;;;12.80;99.90;;;;;;5049356;28;20460;-88
2022/10/13 06:34:00;;;;;;;26.63;11.60;;;12.80;99.90;;;;;;5044915;28;20120;-88
2022/10/13 06:36:26;;;;;;;21.15;12.45;;;12.70;99.90;;;;;;5051269;28;20159;-89
2022/10/13 06:38:52;;;;;;;20.45;11.85;;;12.80;99.90;;;;;;5053062;28;20036;-88
2022/10/13 06:41:18;;;;;;;23.73;11.02;;;12.80;99.90;;;;;;5050788;28;20021;-89
2022/10/13 06:43:43;;;;;;;19.55;11.70;;;12.80;99.90;;;;;;5044731;28;20029;-89
2022/10/13 06:46:11;;;;;;;19.85;11.25;;;12.70;99.90;;;;;;5048102;28;20095;-89
2022/10/13 06:48:37;;;;;;;22.30;11.48;;;12.70;99.90;;;;;;5062960;28;20056;-90
2022/10/13 06:51:08;;;;;;;19.23;11.98;;;12.80;99.90;;;;;;5042438;28;20083;-89
2022/10/13 06:53:34;;;;;;;25.90;13.97;;;12.70;99.90;;;;;;5033722;28;20108;-88
2022/10/13 06:56:03;;;;;;;22.10;11.73;;;12.70;99.90;;;;;;5040462;28;20371;-87
2022/10/13 06:58:28;;;;;;;20.92;11.43;;;12.80;99.90;;;;;;5038209;28;20076;-87
2022/10/13 07:00:54;;;;;;;26.08;11.93;;;12.80;99.90;;;;;;5037220;28;20029;-87
2022/10/13 07:03:20;;;;;;;23.85;12.30;;;12.80;99.90;;;;;;5041691;28;20028;-88
2022/10/13 07:05:45;;;;;;;19.88;11.85;;;12.80;99.90;;;;;;5055738;28;20079;-88
2022/10/13 07:08:12;;;;;;;27.75;12.85;;;12.80;99.90;;;;;;5045659;28;20029;-88
2022/10/13 07:10:38;;;;;;;25.58;12.00;;;12.80;99.90;;;;;;5045992;28;20090;-88
2022/10/13 07:13:04;;;;;;;27.20;13.27;;;12.80;99.90;;;;;;5041728;28;20028;-89
2022/10/13 07:15:30;;;;;;;25.02;12.82;;;12.80;99.90;;;;;;5046107;28;20041;-88
2022/10/13 07:17:55;;;;;;;25.25;13.45;;;12.90;99.90;;;;;;5048596;28;20033;-88
2022/10/13 07:20:22;;;;;;;24.08;13.30;;;12.90;99.90;;;;;;5051450;28;20044;-89
2022/10/13 07:22:48;;;;;;;22.73;12.40;;;12.90;99.90;;;;;;5044080;28;20025;-89
2022/10/13 07:25:14;;;;;;;25.92;12.95;;;12.90;99.90;;;;;;5048423;28;20078;-88
2022/10/13 07:27:40;;;;;;;25.30;13.48;;;12.90;99.90;;;;;;5041997;28;20032;-88
2022/10/13 07:30:07;;;;;;;27.80;14.20;;;12.90;99.90;;;;;;5045336;28;20501;-87
2022/10/13 07:32:34;;;;;;;29.90;13.75;;;12.90;99.90;;;;;;5031737;28;20029;-88
2022/10/13 07:34:59;;;;;;;20.80;12.60;;;12.90;99.90;;;;;;5044761;28;20511;-88
2022/10/13 07:37:25;;;;;;;26.27;13.80;;;12.90;99.90;;;;;;5044984;28;20021;-89
2022/10/13 07:39:51;;;;;;;21.55;12.77;;;12.90;99.90;;;;;;5042232;28;20381;-88
2022/10/13 07:42:17;;;;;;;25.02;13.65;;;13.00;99.90;;;;;;5037475;28;20026;-89
2022/10/13 07:44:43;;;;;;;25.17;13.00;;;13.00;99.90;;;;;;5046772;28;20784;-89
2022/10/13 07:47:08;;;;;;;23.52;12.80;;;13.00;99.90;;;;;;5044244;28;20025;-89
2022/10/13 07:49:34;;;;;;;22.30;12.82;;;13.20;99.90;;;;;;5048368;28;20555;-89
2022/10/13 07:52:00;;;;;;;25.92;13.48;;;13.20;99.90;;;;;;5048065;28;20033;-89
2022/10/13 07:54:26;;;;;;;26.42;12.70;;;13.30;99.90;;;;;;5034485;28;20477;-89
2022/10/13 07:56:52;;;;;;;22.67;12.68;;;13.30;99.90;;;;;;5034886;28;20108;-89
2022/10/13 07:59:18;;;;;;;20.55;12.23;;;13.40;99.90;;;;;;5047061;28;20073;-89
2022/10/13 08:01:43;;;;;;;23.20;12.95;;;13.40;99.90;;;;;;5031928;28;20029;-89
2022/10/13 08:04:09;;;;;;;21.27;12.90;;;13.50;99.90;;;;;;5050762;28;20048;-90
2022/10/13 08:06:35;;;;;;;22.17;13.43;;;13.50;99.90;;;;;;5045632;28;20033;-89
2022/10/13 08:09:02;;;;;;;23.63;12.15;;;13.60;99.90;;;;;;5049023;28;20389;-89
2022/10/13 08:11:27;;;;;;;19.17;12.88;;;13.60;99.90;;;;;;5050725;28;20022;-89
2022/10/13 08:13:54;;;;;;;23.83;12.90;;;13.60;99.90;;;;;;5047790;28;20037;-89
2022/10/13 08:16:21;;;;;;;30.17;14.38;;;13.60;99.90;;;;;;5048231;28;20025;-88
2022/10/13 08:18:47;;;;;;;26.83;14.68;;;13.60;99.90;;;;;;5050179;28;20378;-90
2022/10/13 08:21:16;;;;;;;29.13;14.18;;;13.70;99.90;;;;;;5046481;28;20032;-89
2022/10/13 08:23:43;;;;;;;23.67;13.75;;;13.70;99.90;;;;;;5039347;28;20067;-90
2022/10/13 08:26:22;;;;;;;25.83;13.88;;;13.70;99.90;;;;;;5047128;28;20037;-87
2022/10/13 08:28:47;;;;;;;28.15;14.25;;;13.80;99.90;;;;;;5046030;28;20025;-89
2022/10/13 08:31:13;;;;;;;22.85;14.35;;;13.90;99.90;;;;;;5048749;28;20067;-88
2022/10/13 08:33:40;;;;;;;24.52;14.18;;;13.90;99.90;;;;;;5045445;28;20037;-87
2022/10/13 08:36:06;;;;;;;26.02;13.52;;;14.00;99.90;;;;;;5048594;28;20207;-88
2022/10/13 08:38:31;;;;;;;25.80;13.77;;;14.00;99.90;;;;;;5048598;28;20473;-89
2022/10/13 08:40:57;;;;;;;25.55;13.32;;;14.10;99.90;;;;;;5037772;28;20040;-88
2022/10/13 08:43:24;;;;;;;30.27;13.32;;;14.20;99.90;;;;;;5048331;28;20071;-88
2022/10/13 08:45:51;;;;;;;26.00;13.95;;;14.30;99.90;;;;;;5044261;28;20031;-88
2022/10/13 08:48:21;;;;;;;27.38;13.55;;;14.40;99.90;;;;;;5049461;28;20075;-88
2022/10/13 08:50:54;;;;;;;21.73;13.35;;;14.50;99.90;;;;;;5032621;28;20032;-89
2022/10/13 08:53:27;;;;;;;;;;;14.60;99.90;;;;;;5031217;28;20033;-88
2022/10/13 08:56:11;;;;;;;;;;;14.60;99.90;;;;;;5037594;28;19988;-88
2022/10/13 08:58:40;;;;;;;23.38;12.32;;;14.60;99.90;;;;;;5031223;28;19924;-89
2022/10/13 09:01:19;;;;;;;26.50;13.10;;;14.80;99.90;;;;;;5034274;28;20021;-88
2022/10/13 09:04:01;;;;;;;25.83;12.27;;;14.80;99.90;;;;;;5048396;28;20035;-89
2022/10/13 09:06:35;;;;;;;25.00;13.32;;;14.90;99.90;;;;;;5047745;28;20056;-90
2022/10/13 09:09:04;;;;;;;28.17;14.55;;;15.00;99.90;;;;;;5040055;28;20041;-90
2022/10/13 09:11:35;;;;;;;21.10;13.45;;;15.10;99.90;;;;;;5035469;28;20605;-89
2022/10/13 09:14:04;;;;;;;22.80;13.82;;;15.20;99.90;;;;;;5054408;28;20155;-89
2022/10/13 09:16:40;;;;;;;25.35;13.90;;;15.40;99.90;;;;;;5053743;28;20029;-89
2022/10/13 09:19:21;;;;;;;23.00;13.75;;;15.40;99.90;;;;;;5049530;28;20029;-89
2022/10/13 09:21:48;;;;;;;22.73;13.70;;;15.50;99.90;;;;;;5048508;28;20473;-89
2022/10/13 09:24:18;;;;;;;23.88;13.88;;;15.60;99.90;;;;;;5052857;28;20086;-90
2022/10/13 09:26:47;;;;;;;23.92;13.32;;;15.60;99.90;;;;;;5048376;28;20124;-89
2022/10/13 09:29:23;;;;;;;20.33;12.85;;;15.70;99.90;;;;;;5049862;28;20030;-88
2022/10/13 09:31:49;;;;;;;24.13;14.07;;;15.70;99.90;;;;;;5050534;28;20053;-88
2022/10/13 09:34:17;;;;;;;24.88;12.98;;;15.70;99.90;;;;;;5047104;28;20045;-90
2022/10/13 09:37:05;;;;;;;26.98;13.27;;;15.80;99.90;;;;;;5037424;28;20025;-89
2022/10/13 09:39:32;;;;;;;20.63;13.32;;;15.80;99.90;;;;;;5043156;28;20030;-89
2022/10/13 09:42:19;;;;;;;18.65;11.70;;;15.90;99.90;;;;;;5052916;28;20103;-89
2022/10/13 09:44:45;;;;;;;23.35;12.43;;;15.90;99.90;;;;;;5050094;28;20017;-89
2022/10/13 09:47:20;;;;;;;21.40;11.35;;;15.90;99.90;;;;;;5049815;28;20095;-88
2022/10/13 09:49:58;;;;;;;24.98;11.90;;;16.00;99.90;;;;;;5053026;28;20089;-90
2022/10/13 09:52:24;;;;;;;21.20;10.73;;;16.00;99.90;;;;;;5049113;28;20025;-89
2022/10/13 09:54:52;;;;;;;20.13;11.20;;;16.10;99.90;;;;;;5045883;28;20816;-88
2022/10/13 09:57:22;;;;;;;19.75;11.50;;;16.10;99.90;;;;;;5038141;28;20021;-89
2022/10/13 09:59:52;;;;;;;18.25;11.48;;;16.10;99.90;;;;;;5041146;28;20359;-89
2022/10/13 10:02:39;;;;;;;19.20;11.15;;;16.20;99.90;;;;;;5046562;28;20033;-90
2022/10/13 10:05:28;;;;;;;22.38;10.77;;;16.30;99.90;;;;;;5047565;28;20108;-90
2022/10/13 10:07:59;;;;;;;24.75;10.80;;;16.30;99.90;;;;;;5045485;28;20033;-90
2022/10/13 10:10:35;;;;;;;22.67;11.38;;;16.30;99.90;;;;;;5037766;28;20033;-89
2022/10/13 10:13:02;;;;;;;20.10;11.35;;;16.30;99.90;;;;;;5042823;28;20120;-89
2022/10/13 10:15:59;;;;;;;25.60;12.65;;;16.30;99.90;;;;;;5048385;28;20033;-89
2022/10/13 10:18:38;;;;;;;17.23;11.38;;;16.40;99.90;;;;;;5004092;28;20141;-90
2022/10/13 10:21:35;;;;;;;15.85;10.27;;;16.30;99.90;;;;;;5049497;28;20067;-89
2022/10/13 10:24:33;;;;;;;17.55;11.45;;;16.30;99.90;;;;;;5042077;28;20032;-90
2022/10/13 10:27:04;;;;;;;16.05;9.95;;;16.30;99.90;;;;;;5052996;28;20078;-90
2022/10/13 10:29:52;;;;;;;19.52;10.60;;;16.30;99.90;;;;;;5046559;28;20025;-88
2022/10/13 10:32:49;;;;;;;19.23;11.07;;;16.20;99.90;;;;;;5041871;28;20045;-89
2022/10/13 10:35:35;;;;;;;21.33;11.18;;;16.20;99.90;;;;;;5032259;28;20036;-89
2022/10/13 10:38:13;;;;;;;17.70;11.55;;;16.10;99.90;;;;;;5041780;28;20076;-89
2022/10/13 10:40:55;;;;;;;23.52;10.90;;;16.00;99.90;;;;;;5033061;28;20465;-89
2022/10/13 10:43:32;;;;;;;27.23;12.43;;;15.80;99.90;;;;;;5047495;28;20025;-90
2022/10/13 10:45:59;;;;;;;19.73;11.80;;;15.70;99.90;;;;;;5055552;28;20033;-90
2022/10/13 10:48:31;;;;;;;24.45;12.82;;;15.50;99.90;;;;;;5048425;28;20030;-90
2022/10/13 10:50:59;;;;;;;23.48;13.25;;;15.40;99.90;;;;;;5044830;28;20029;-93
2022/10/13 10:53:48;;;;;;;25.25;13.75;;;15.20;99.90;;;;;;5039160;28;20058;-92
2022/10/13 10:56:41;;;;;;;21.45;13.18;;;15.10;99.90;;;;;;5047153;28;20366;-92
2022/10/13 10:59:09;;;;;;;22.58;12.48;;;15.00;99.90;;;;;;5041545;28;20067;-91
2022/10/13 11:01:53;;;;;;;24.08;13.50;;;14.90;99.90;;;;;;5039000;28;20022;-92
2022/10/13 11:04:47;;;;;;;22.25;13.75;;;14.80;99.90;;;;;;5049145;28;20034;-92
2022/10/13 11:07:33;;;;;;;23.67;13.13;;;14.80;99.90;;;;;;5039586;28;20030;-90
2022/10/13 11:09:59;;;;;;;29.33;14.27;;;14.80;99.90;;;;;;5027842;28;20041;-91
2022/10/13 11:12:48;;;;;;;24.73;14.55;;;14.70;99.90;;;;;;5041252;28;20029;-91
2022/10/13 11:15:24;;;;;;;23.30;13.73;;;14.60;99.90;;;;;;5035555;28;20045;-92
2022/10/13 11:17:51;;;;;;;25.00;14.57;;;14.60;99.90;;;;;;5052628;28;20025;-91
2022/10/13 11:20:19;;;;;;;26.15;14.48;;;14.60;99.90;;;;;;5048210;28;20039;-91
2022/10/13 11:23:00;;;;;;;22.90;14.65;;;14.60;99.90;;;;;;5048208;28;20028;-91
2022/10/13 11:25:42;;;;;;;26.27;14.45;;;14.50;99.90;;;;;;5039465;28;20022;-91
2022/10/13 11:28:25;;;;;;;26.83;15.02;;;14.50;99.90;;;;;;5048310;28;20029;-90
2022/10/13 11:31:16;;;;;;;21.70;13.95;;;14.40;99.90;;;;;;5039768;28;20497;-90
2022/10/13 11:33:43;;;;;;;25.80;14.88;;;14.40;99.90;;;;;;5048386;28;20044;-90
2022/10/13 11:36:44;;;;;;;27.50;14.98;;;14.40;99.90;;;;;;5048487;28;20033;-89
2022/10/13 11:39:36;;;;;;;26.77;14.75;;;14.40;99.90;;;;;;5046416;28;20390;-89
2022/10/13 11:42:25;;;;;;;26.77;15.70;;;14.30;99.90;;;;;;5046392;28;20070;-92
2022/10/13 11:45:20;;;;;;;23.48;13.50;;;14.30;99.90;;;;;;5039393;28;20484;-91
2022/10/13 11:48:32;;;;;;;22.60;14.30;;;14.40;99.90;;;;;;5033501;28;20026;-90
2022/10/13 11:51:14;;;;;;;22.25;12.50;;;14.50;99.90;;;;;;5047404;28;20104;-91
2022/10/13 11:53:45;;;;;;;20.83;13.93;;;14.50;99.90;;;;;;5042933;28;20029;-89
2022/10/13 11:56:34;;;;;;;22.30;14.07;;;14.60;99.90;;;;;;5050773;28;20029;-90
2022/10/13 11:59:00;;;;;;;22.88;13.73;;;14.60;99.90;;;;;;5039123;28;20032;-89
2022/10/13 12:01:25;;;;;;;23.27;14.02;;;14.60;99.90;;;;;;5045649;28;20042;-89
2022/10/13 12:03:51;;;;;;;21.35;13.45;;;14.60;99.90;;;;;;5040789;28;20017;-90
2022/10/13 12:06:32;;;;;;;23.50;13.60;;;14.70;99.90;;;;;;5044422;28;20033;-90
2022/10/13 12:09:03;;;;;;;24.60;12.95;;;14.60;99.90;;;;;;5049418;28;20025;-91
2022/10/13 12:11:36;;;;;;;21.95;12.52;;;14.60;99.90;;;;;;5049787;28;20512;-90
2022/10/13 12:14:04;;;;;;;23.30;13.80;;;14.70;99.90;;;;;;5045525;28;20039;-91
2022/10/13 12:16:30;;;;;;;24.55;12.45;;;14.60;99.90;;;;;;5047748;28;20028;-90
2022/10/13 12:19:24;;;;;;;24.63;14.23;;;14.70;99.90;;;;;;5049662;28;20124;-90
2022/10/13 12:21:55;;;;;;;26.45;14.32;;;14.80;99.90;;;;;;5050391;28;20025;-91
2022/10/13 12:24:23;;;;;;;23.17;13.37;;;14.80;99.90;;;;;;5040710;28;20025;-89
2022/10/13 12:26:50;;;;;;;19.67;11.73;;;14.70;99.90;;;;;;5047205;28;20028;-89
2022/10/13 12:29:25;;;;;;;19.50;11.95;;;14.70;99.90;;;;;;5048727;28;20037;-90
2022/10/13 12:31:52;;;;;;;21.40;12.00;;;14.70;99.90;;;;;;5039371;28;20163;-90
2022/10/13 12:34:35;;;;;;;22.13;13.15;;;14.70;99.90;;;;;;5051150;28;20915;-89
2022/10/13 12:37:10;;;;;;;23.70;12.38;;;14.60;99.90;;;;;;5052044;28;20025;-90
2022/10/13 12:39:38;;;;;;;21.45;12.80;;;14.60;99.90;;;;;;5057551;28;20468;-91
2022/10/13 12:42:06;;;;;;;22.30;12.32;;;14.70;99.90;;;;;;5051177;28;20041;-90
2022/10/13 12:44:32;;;;;;;19.02;12.15;;;14.70;99.90;;;;;;5055809;28;20057;-89
2022/10/13 12:47:02;;;;;;;20.88;12.90;;;14.70;99.90;;;;;;5054868;28;20033;-89